sensor_id;sensor_type;location;lat;lon;timestamp;pressure;altitude;pressure_sealevel;temperature;humidity
62150;BME280;48134;53.586;10.610;2023-09-18T00:02:10;100479.53;;;16.60;100.00
62150;BME280;48134;53.586;10.610;2023-09-18T00:04:38;100478.25;;;16.57;100.00
62150;BME280;48134;53.586;10.610;2023-09-18T00:07:11;100468.22;;;16.53;100.00
62150;BME280;48134;53.586;10.610;2023-09-18T00:09:40;100478.09;;;16.54;100.00
62150;BME280;48134;53.586;10.610;2023-09-18T00:12:14;100463.41;;;16.49;100.00
62150;BME280;48134;53.586;10.610;2023-09-18T00:14:48;100462.25;;;16.59;100.00
62150;BME280;48134;53.586;10.610;2023-09-18T00:17:21;100454.50;;;16.53;100.00
62150;BME280;48134;53.586;10.610;2023-09-18T00:19:55;100449.00;;;16.53;100.00
62150;BME280;48134;53.586;10.610;2023-09-18T00:22:23;100448.53;;;16.51;100.00
62150;BME280;48134;53.586;10.610;2023-09-18T00:24:57;100455.50;;;16.48;100.00
62150;BME280;48134;53.586;10.610;2023-09-18T00:27:31;100445.16;;;16.45;100.00
62150;BME280;48134;53.586;10.610;2023-09-18T00:30:06;100441.78;;;16.39;100.00
62150;BME280;48134;53.586;10.610;2023-09-18T00:32:34;100438.38;;;16.33;100.00
62150;BME280;48134;53.586;10.610;2023-09-18T00:35:03;100433.84;;;16.29;100.00
62150;BME280;48134;53.586;10.610;2023-09-18T00:37:31;100425.94;;;16.27;100.00
62150;BME280;48134;53.586;10.610;2023-09-18T00:40:00;100429.03;;;16.26;100.00
62150;BME280;48134;53.586;10.610;2023-09-18T00:42:35;100424.19;;;16.23;100.00
62150;BME280;48134;53.586;10.610;2023-09-18T00:45:04;100424.19;;;16.23;100.00
62150;BME280;48134;53.586;10.610;2023-09-18T00:47:37;100424.81;;;16.20;100.00
62150;BME280;48134;53.586;10.610;2023-09-18T00:50:08;100424.81;;;16.20;100.00
62150;BME280;48134;53.586;10.610;2023-09-18T00:52:38;100417.56;;;16.15;100.00
62150;BME280;48134;53.586;10.610;2023-09-18T00:55:07;100409.47;;;16.10;100.00
62150;BME280;48134;53.586;10.610;2023-09-18T00:57:37;100419.16;;;16.07;100.00
62150;BME280;48134;53.586;10.610;2023-09-18T01:00:12;100406.59;;;16.06;100.00
62150;BME280;48134;53.586;10.610;2023-09-18T01:02:47;100402.88;;;16.02;100.00
62150;BME280;48134;53.586;10.610;2023-09-18T01:05:20;100401.25;;;16.01;100.00
62150;BME280;48134;53.586;10.610;2023-09-18T01:07:48;100404.00;;;16.01;100.00
62150;BME280;48134;53.586;10.610;2023-09-18T01:10:18;100399.97;;;15.98;100.00
62150;BME280;48134;53.586;10.610;2023-09-18T01:13:04;100393.84;;;15.93;100.00
62150;BME280;48134;53.586;10.610;2023-09-18T01:15:50;100391.41;;;15.91;100.00
62150;BME280;48134;53.586;10.610;2023-09-18T01:18:25;100394.63;;;15.93;100.00
62150;BME280;48134;53.586;10.610;2023-09-18T01:20:58;100393.03;;;15.92;100.00
62150;BME280;48134;53.586;10.610;2023-09-18T01:23:27;100390.44;;;15.87;100.00
62150;BME280;48134;53.586;10.610;2023-09-18T01:26:00;100386.72;;;15.83;100.00
62150;BME280;48134;53.586;10.610;2023-09-18T01:28:29;100385.59;;;15.84;100.00
62150;BME280;48134;53.586;10.610;2023-09-18T01:30:57;100373.81;;;15.84;100.00
62150;BME280;48134;53.586;10.610;2023-09-18T01:33:27;100378.50;;;15.83;100.00
62150;BME280;48134;53.586;10.610;2023-09-18T01:36:02;100362.03;;;15.83;100.00
62150;BME280;48134;53.586;10.610;2023-09-18T01:38:37;100355.44;;;15.84;100.00
62150;BME280;48134;53.586;10.610;2023-09-18T01:41:12;100351.38;;;15.81;100.00
62150;BME280;48134;53.586;10.610;2023-09-18T01:43:45;100345.41;;;15.79;100.00
62150;BME280;48134;53.586;10.610;2023-09-18T01:46:19;100342.97;;;15.78;100.00
62150;BME280;48134;53.586;10.610;2023-09-18T01:48:47;100340.06;;;15.74;100.00
62150;BME280;48134;53.586;10.610;2023-09-18T01:51:20;100338.78;;;15.72;100.00
62150;BME280;48134;53.586;10.610;2023-09-18T01:53:50;100328.59;;;15.72;100.00
62150;BME280;48134;53.586;10.610;2023-09-18T01:56:18;100327.63;;;15.68;100.00
62150;BME280;48134;53.586;10.610;2023-09-18T01:58:46;100326.50;;;15.69;100.00
62150;BME280;48134;53.586;10.610;2023-09-18T02:01:14;100320.53;;;15.67;100.00
62150;BME280;48134;53.586;10.610;2023-09-18T02:03:42;100326.66;;;15.64;100.00
62150;BME280;48134;53.586;10.610;2023-09-18T02:06:12;100322.63;;;15.61;100.00
62150;BME280;48134;53.586;10.610;2023-09-18T02:08:40;100325.38;;;15.61;100.00
62150;BME280;48134;53.586;10.610;2023-09-18T02:11:15;100316.00;;;15.62;100.00
62150;BME280;48134;53.586;10.610;2023-09-18T02:13:43;100313.28;;;15.62;100.00
62150;BME280;48134;53.586;10.610;2023-09-18T02:16:16;100301.66;;;15.57;100.00
62150;BME280;48134;53.586;10.610;2023-09-18T02:18:49;100307.78;;;15.54;100.00
62150;BME280;48134;53.586;10.610;2023-09-18T02:21:19;100305.69;;;15.59;100.00
62150;BME280;48134;53.586;10.610;2023-09-18T02:23:53;100289.72;;;15.61;100.00
62150;BME280;48134;53.586;10.610;2023-09-18T02:26:28;100285.84;;;15.54;100.00
62150;BME280;48134;53.586;10.610;2023-09-18T02:28:59;100287.97;;;15.48;100.00
62150;BME280;48134;53.586;10.610;2023-09-18T02:31:27;100282.16;;;15.50;100.00
62150;BME280;48134;53.586;10.610;2023-09-18T02:34:00;100269.88;;;15.47;100.00
62150;BME280;48134;53.586;10.610;2023-09-18T02:36:33;100269.06;;;15.46;100.00
62150;BME280;48134;53.586;10.610;2023-09-18T02:39:06;100278.56;;;15.49;100.00
62150;BME280;48134;53.586;10.610;2023-09-18T02:41:36;100282.16;;;15.50;100.00
62150;BME280;48134;53.586;10.610;2023-09-18T02:44:09;100266.63;;;15.45;100.00
62150;BME280;48134;53.586;10.610;2023-09-18T02:46:38;100269.72;;;15.43;100.00
62150;BME280;48134;53.586;10.610;2023-09-18T02:49:12;100264.88;;;15.40;100.00
62150;BME280;48134;53.586;10.610;2023-09-18T02:51:45;100271.16;;;15.41;100.00
62150;BME280;48134;53.586;10.610;2023-09-18T02:54:13;100263.59;;;15.38;100.00
62150;BME280;48134;53.586;10.610;2023-09-18T02:56:43;100255.50;;;15.33;100.00
62150;BME280;48134;53.586;10.610;2023-09-18T02:59:17;100248.59;;;15.35;100.00
62150;BME280;48134;53.586;10.610;2023-09-18T03:01:45;100246.16;;;15.34;100.00
62150;BME280;48134;53.586;10.610;2023-09-18T03:04:19;100241.81;;;15.33;100.00
62150;BME280;48134;53.586;10.610;2023-09-18T03:06:53;100246.16;;;15.34;100.00
62150;BME280;48134;53.586;10.610;2023-09-18T03:09:26;100243.75;;;15.32;100.00
62150;BME280;48134;53.586;10.610;2023-09-18T03:12:01;100236.97;;;15.29;100.00
62150;BME280;48134;53.586;10.610;2023-09-18T03:14:34;100241.47;;;15.25;100.00
62150;BME280;48134;53.586;10.610;2023-09-18T03:17:02;100244.06;;;15.22;100.00
62150;BME280;48134;53.586;10.610;2023-09-18T03:19:30;100241.63;;;15.20;100.00
62150;BME280;48134;53.586;10.610;2023-09-18T03:21:59;100240.03;;;15.19;100.00
62150;BME280;48134;53.586;10.610;2023-09-18T03:24:32;100237.31;;;15.19;100.00
62150;BME280;48134;53.586;10.610;2023-09-18T03:27:07;100244.06;;;15.22;100.00
62150;BME280;48134;53.586;10.610;2023-09-18T03:29:35;100234.72;;;15.23;100.00
62150;BME280;48134;53.586;10.610;2023-09-18T03:32:08;100220.22;;;15.22;100.00
62150;BME280;48134;53.586;10.610;2023-09-18T03:34:44;100228.91;;;15.24;100.00
62150;BME280;48134;53.586;10.610;2023-09-18T03:37:17;100215.84;;;15.21;100.00
62150;BME280;48134;53.586;10.610;2023-09-18T03:39:50;100226.00;;;15.21;100.00
62150;BME280;48134;53.586;10.610;2023-09-18T03:42:20;100210.53;;;15.25;100.00
62150;BME280;48134;53.586;10.610;2023-09-18T03:44:48;100200.69;;;15.24;100.00
62150;BME280;48134;53.586;10.610;2023-09-18T03:47:21;100198.28;;;15.22;100.00
62150;BME280;48134;53.586;10.610;2023-09-18T03:49:54;100184.41;;;15.19;100.00
62150;BME280;48134;53.586;10.610;2023-09-18T03:52:28;100182.78;;;15.18;100.00
62150;BME280;48134;53.586;10.610;2023-09-18T03:55:02;100187.78;;;15.16;100.00
62150;BME280;48134;53.586;10.610;2023-09-18T03:57:32;100182.13;;;15.12;100.00
62150;BME280;48134;53.586;10.610;2023-09-18T04:00:06;100173.28;;;15.06;100.00
62150;BME280;48134;53.586;10.610;2023-09-18T04:02:40;100179.59;;;15.07;100.00
62150;BME280;48134;53.586;10.610;2023-09-18T04:05:13;100174.91;;;14.99;100.00
62150;BME280;48134;53.586;10.610;2023-09-18T04:07:47;100169.41;;;15.07;100.00
62150;BME280;48134;53.586;10.610;2023-09-18T04:10:15;100168.13;;;15.05;100.00
62150;BME280;48134;53.586;10.610;2023-09-18T04:12:53;100159.75;;;15.01;100.00
62150;BME280;48134;53.586;10.610;2023-09-18T04:15:26;100153.78;;;14.99;100.00
62150;BME280;48134;53.586;10.610;2023-09-18T04:18:03;100154.91;;;14.98;100.00
62150;BME280;48134;53.586;10.610;2023-09-18T04:20:31;100157.16;;;14.96;100.00
62150;BME280;48134;53.586;10.610;2023-09-18T04:23:20;100148.94;;;14.96;100.00
62150;BME280;48134;53.586;10.610;2023-09-18T04:25:54;100140.72;;;14.96;100.00
62150;BME280;48134;53.586;10.610;2023-09-18T04:28:31;100141.06;;;14.94;100.00
62150;BME280;48134;53.586;10.610;2023-09-18T04:31:04;100138.66;;;14.93;100.00
62150;BME280;48134;53.586;10.610;2023-09-18T04:33:33;100132.84;;;14.94;100.00
62150;BME280;48134;53.586;10.610;2023-09-18T04:36:06;100134.44;;;14.95;100.00
62150;BME280;48134;53.586;10.610;2023-09-18T04:38:39;100136.38;;;14.95;100.00
62150;BME280;48134;53.586;10.610;2023-09-18T04:41:13;100129.78;;;14.96;100.00
62150;BME280;48134;53.586;10.610;2023-09-18T04:43:43;100126.72;;;14.98;100.00
62150;BME280;48134;53.586;10.610;2023-09-18T04:46:16;100125.91;;;14.97;100.00
62150;BME280;48134;53.586;10.610;2023-09-18T04:48:45;100119.28;;;14.98;100.00
62150;BME280;48134;53.586;10.610;2023-09-18T04:51:13;100117.03;;;15.00;100.00
62150;BME280;48134;53.586;10.610;2023-09-18T04:53:42;100119.28;;;14.98;100.00
62150;BME280;48134;53.586;10.610;2023-09-18T04:56:15;100111.72;;;14.95;100.00
62150;BME280;48134;53.586;10.610;2023-09-18T04:58:45;100107.34;;;14.94;100.00
62150;BME280;48134;53.586;10.610;2023-09-18T05:01:13;100098.66;;;14.92;100.00
62150;BME280;48134;53.586;10.610;2023-09-18T05:03:42;100090.44;;;14.92;100.00
62150;BME280;48134;53.586;10.610;2023-09-18T05:06:15;100098.34;;;14.93;100.00
62150;BME280;48134;53.586;10.610;2023-09-18T05:08:44;100092.53;;;14.95;100.00
62150;BME280;48134;53.586;10.610;2023-09-18T05:11:12;100082.38;;;14.95;100.00
62150;BME280;48134;53.586;10.610;2023-09-18T05:13:40;100078.84;;;14.95;100.00
62150;BME280;48134;53.586;10.610;2023-09-18T05:16:16;100072.56;;;14.94;100.00
62150;BME280;48134;53.586;10.610;2023-09-18T05:18:49;100064.00;;;14.96;100.00
62150;BME280;48134;53.586;10.610;2023-09-18T05:21:22;100064.81;;;14.96;100.00
62150;BME280;48134;53.586;10.610;2023-09-18T05:23:56;100067.38;;;15.02;100.00
62150;BME280;48134;53.586;10.610;2023-09-18T05:26:24;100049.50;;;15.04;100.00
62150;BME280;48134;53.586;10.610;2023-09-18T05:28:53;100049.34;;;15.09;100.00
62150;BME280;48134;53.586;10.610;2023-09-18T05:31:23;100035.75;;;15.13;100.00
62150;BME280;48134;53.586;10.610;2023-09-18T05:33:56;100030.59;;;15.20;100.00
62150;BME280;48134;53.586;10.610;2023-09-18T05:36:24;100032.19;;;15.21;100.00
62150;BME280;48134;53.586;10.610;2023-09-18T05:38:57;100031.22;;;15.26;100.00
62150;BME280;48134;53.586;10.610;2023-09-18T05:41:30;100026.22;;;15.28;100.00
62150;BME280;48134;53.586;10.610;2023-09-18T05:44:04;100025.56;;;15.31;100.00
62150;BME280;48134;53.586;10.610;2023-09-18T05:46:42;100026.03;;;15.33;100.00
62150;BME280;48134;53.586;10.610;2023-09-18T05:49:15;100027.34;;;15.36;100.00
62150;BME280;48134;53.586;10.610;2023-09-18T05:51:44;100021.19;;;15.39;100.00
62150;BME280;48134;53.586;10.610;2023-09-18T05:54:19;100027.63;;;15.43;100.00
62150;BME280;48134;53.586;10.610;2023-09-18T05:56:52;100022.13;;;15.43;100.00
62150;BME280;48134;53.586;10.610;2023-09-18T05:59:25;100019.53;;;15.46;100.00
62150;BME280;48134;53.586;10.610;2023-09-18T06:01:55;100015.81;;;15.51;100.00
62150;BME280;48134;53.586;10.610;2023-09-18T06:04:28;100006.91;;;15.54;100.00
62150;BME280;48134;53.586;10.610;2023-09-18T06:06:57;100001.91;;;15.56;100.00
62150;BME280;48134;53.586;10.610;2023-09-18T06:09:25;100000.59;;;15.62;100.00
62150;BME280;48134;53.586;10.610;2023-09-18T06:11:59;99986.09;;;15.62;100.00
62150;BME280;48134;53.586;10.610;2023-09-18T06:14:27;99996.22;;;15.70;100.00
62150;BME280;48134;53.586;10.610;2023-09-18T06:17:02;99998.41;;;15.77;100.00
62150;BME280;48134;53.586;10.610;2023-09-18T06:19:35;99983.53;;;15.87;100.00
62150;BME280;48134;53.586;10.610;2023-09-18T06:22:04;99982.22;;;15.93;100.00
62150;BME280;48134;53.586;10.610;2023-09-18T06:24:32;99977.00;;;16.00;100.00
62150;BME280;48134;53.586;10.610;2023-09-18T06:27:05;99975.00;;;16.09;100.00
62150;BME280;48134;53.586;10.610;2023-09-18T06:29:38;99961.88;;;16.15;100.00
62150;BME280;48134;53.586;10.610;2023-09-18T06:32:14;99960.19;;;16.23;100.00
62150;BME280;48134;53.586;10.610;2023-09-18T06:34:43;99952.69;;;16.32;100.00
62150;BME280;48134;53.586;10.610;2023-09-18T06:37:11;99948.59;;;16.38;100.00
62150;BME280;48134;53.586;10.610;2023-09-18T06:39:39;99948.84;;;16.45;100.00
62150;BME280;48134;53.586;10.610;2023-09-18T06:42:08;99948.91;;;16.58;100.00
62150;BME280;48134;53.586;10.610;2023-09-18T06:44:41;99952.38;;;16.67;100.00
62150;BME280;48134;53.586;10.610;2023-09-18T06:47:16;99946.63;;;16.72;100.00
62150;BME280;48134;53.586;10.610;2023-09-18T06:49:49;99941.31;;;16.88;100.00
62150;BME280;48134;53.586;10.610;2023-09-18T06:52:23;99938.94;;;16.99;100.00
62150;BME280;48134;53.586;10.610;2023-09-18T06:54:57;99936.22;;;17.11;100.00
62150;BME280;48134;53.586;10.610;2023-09-18T06:57:30;99932.22;;;17.21;100.00
62150;BME280;48134;53.586;10.610;2023-09-18T06:59:59;99935.97;;;17.41;100.00
62150;BME280;48134;53.586;10.610;2023-09-18T07:02:33;99927.06;;;17.44;100.00
62150;BME280;48134;53.586;10.610;2023-09-18T07:05:01;99926.03;;;17.37;100.00
62150;BME280;48134;53.586;10.610;2023-09-18T07:07:30;99929.56;;;17.37;100.00
62150;BME280;48134;53.586;10.610;2023-09-18T07:10:04;99920.75;;;17.44;100.00
62150;BME280;48134;53.586;10.610;2023-09-18T07:12:37;99920.28;;;17.54;100.00
62150;BME280;48134;53.586;10.610;2023-09-18T07:15:07;99905.69;;;17.66;100.00
62150;BME280;48134;53.586;10.610;2023-09-18T07:17:36;99900.09;;;17.75;100.00
62150;BME280;48134;53.586;10.610;2023-09-18T07:20:05;99895.69;;;17.86;100.00
62150;BME280;48134;53.586;10.610;2023-09-18T07:22:45;99898.78;;;17.97;100.00
62150;BME280;48134;53.586;10.610;2023-09-18T07:25:13;99892.88;;;18.11;100.00
62150;BME280;48134;53.586;10.610;2023-09-18T07:27:47;99884.47;;;18.19;100.00
62150;BME280;48134;53.586;10.610;2023-09-18T07:30:15;99878.19;;;18.35;100.00
62150;BME280;48134;53.586;10.610;2023-09-18T07:32:45;99869.16;;;18.50;100.00
62150;BME280;48134;53.586;10.610;2023-09-18T07:35:19;99859.38;;;18.53;100.00
62150;BME280;48134;53.586;10.610;2023-09-18T07:37:52;99853.38;;;18.63;100.00
62150;BME280;48134;53.586;10.610;2023-09-18T07:40:25;99853.38;;;18.63;100.00
62150;BME280;48134;53.586;10.610;2023-09-18T07:42:54;99853.78;;;18.65;100.00
62150;BME280;48134;53.586;10.610;2023-09-18T07:45:27;99843.22;;;18.67;100.00
62150;BME280;48134;53.586;10.610;2023-09-18T07:48:02;99850.34;;;18.68;100.00
62150;BME280;48134;53.586;10.610;2023-09-18T07:50:30;99856.03;;;18.76;100.00
62150;BME280;48134;53.586;10.610;2023-09-18T07:53:00;99855.56;;;18.74;100.00
62150;BME280;48134;53.586;10.610;2023-09-18T07:55:28;99857.97;;;18.75;100.00
62150;BME280;48134;53.586;10.610;2023-09-18T07:57:56;99841.53;;;18.79;100.00
62150;BME280;48134;53.586;10.610;2023-09-18T08:00:25;99838.25;;;18.89;100.00
62150;BME280;48134;53.586;10.610;2023-09-18T08:02:59;99827.44;;;18.96;100.00
62150;BME280;48134;53.586;10.610;2023-09-18T08:05:29;99840.03;;;18.97;100.00
62150;BME280;48134;53.586;10.610;2023-09-18T08:08:04;99856.66;;;19.01;100.00
62150;BME280;48134;53.586;10.610;2023-09-18T08:10:38;99855.06;;;19.00;100.00
62150;BME280;48134;53.586;10.610;2023-09-18T08:13:06;99857.13;;;19.03;100.00
62150;BME280;48134;53.586;10.610;2023-09-18T08:15:34;99853.19;;;19.04;100.00
62150;BME280;48134;53.586;10.610;2023-09-18T08:18:03;99853.38;;;19.11;100.00
62150;BME280;48134;53.586;10.610;2023-09-18T08:20:40;99845.97;;;19.15;100.00
62150;BME280;48134;53.586;10.610;2023-09-18T08:23:13;99855.31;;;19.27;100.00
62150;BME280;48134;53.586;10.610;2023-09-18T08:25:46;99848.44;;;19.36;100.00
62150;BME280;48134;53.586;10.610;2023-09-18T08:28:15;99841.03;;;19.41;100.00
62150;BME280;48134;53.586;10.610;2023-09-18T08:30:48;99836.94;;;19.34;100.00
62150;BME280;48134;53.586;10.610;2023-09-18T08:33:21;99832.50;;;19.30;100.00
62150;BME280;48134;53.586;10.610;2023-09-18T08:35:51;99820.25;;;19.27;100.00
62150;BME280;48134;53.586;10.610;2023-09-18T08:38:24;99826.38;;;19.36;100.00
62150;BME280;48134;53.586;10.610;2023-09-18T08:40:53;99820.03;;;19.36;100.00
62150;BME280;48134;53.586;10.610;2023-09-18T08:43:27;99827.88;;;19.34;100.00
62150;BME280;48134;53.586;10.610;2023-09-18T08:46:02;99822.78;;;19.36;100.00
62150;BME280;48134;53.586;10.610;2023-09-18T08:48:31;99806.19;;;19.32;100.00
62150;BME280;48134;53.586;10.610;2023-09-18T08:51:05;99820.91;;;19.40;100.00
62150;BME280;48134;53.586;10.610;2023-09-18T08:53:35;99815.06;;;19.42;100.00
62150;BME280;48134;53.586;10.610;2023-09-18T08:56:04;99819.84;;;19.45;100.00
62150;BME280;48134;53.586;10.610;2023-09-18T08:58:38;99825.41;;;19.48;100.00
62150;BME280;48134;53.586;10.610;2023-09-18T09:01:09;99830.16;;;19.48;100.00
62150;BME280;48134;53.586;10.610;2023-09-18T09:03:43;99863.78;;;19.53;100.00
62150;BME280;48134;53.586;10.610;2023-09-18T09:06:13;99862.63;;;19.54;100.00
62150;BME280;48134;53.586;10.610;2023-09-18T09:08:46;99875.19;;;19.52;100.00
62150;BME280;48134;53.586;10.610;2023-09-18T09:11:20;99866.31;;;19.62;100.00
62150;BME280;48134;53.586;10.610;2023-09-18T09:14:08;99855.81;;;19.68;100.00
62150;BME280;48134;53.586;10.610;2023-09-18T09:16:38;99855.81;;;19.68;100.00
62150;BME280;48134;53.586;10.610;2023-09-18T09:19:07;99848.09;;;19.58;100.00
62150;BME280;48134;53.586;10.610;2023-09-18T09:21:40;99848.75;;;19.51;100.00
62150;BME280;48134;53.586;10.610;2023-09-18T09:24:11;99847.97;;;19.34;100.00
62150;BME280;48134;53.586;10.610;2023-09-18T09:26:57;99846.69;;;19.28;100.00
62150;BME280;48134;53.586;10.610;2023-09-18T09:29:25;99835.03;;;19.19;100.00
62150;BME280;48134;53.586;10.610;2023-09-18T09:31:53;99823.72;;;19.24;100.00
62150;BME280;48134;53.586;10.610;2023-09-18T09:34:40;99829.03;;;19.33;100.00
62150;BME280;48134;53.586;10.610;2023-09-18T09:37:10;99825.00;;;19.46;100.00
62150;BME280;48134;53.586;10.610;2023-09-18T09:39:49;99815.06;;;19.61;100.00
62150;BME280;48134;53.586;10.610;2023-09-18T09:42:18;99809.41;;;19.74;100.00
62150;BME280;48134;53.586;10.610;2023-09-18T09:45:02;99819.34;;;19.78;100.00
62150;BME280;48134;53.586;10.610;2023-09-18T09:47:34;99803.53;;;19.75;100.00
62150;BME280;48134;53.586;10.610;2023-09-18T09:50:07;99806.00;;;20.00;100.00
62150;BME280;48134;53.586;10.610;2023-09-18T09:52:44;99811.16;;;20.01;100.00
62150;BME280;48134;53.586;10.610;2023-09-18T09:55:27;99817.91;;;20.04;100.00
62150;BME280;48134;53.586;10.610;2023-09-18T09:57:58;99812.69;;;19.99;100.00
62150;BME280;48134;53.586;10.610;2023-09-18T10:00:30;99812.94;;;20.13;100.00
62150;BME280;48134;53.586;10.610;2023-09-18T10:03:07;99826.25;;;20.08;100.00
62150;BME280;48134;53.586;10.610;2023-09-18T10:05:43;99817.91;;;20.04;100.00
62150;BME280;48134;53.586;10.610;2023-09-18T10:08:16;99815.88;;;20.20;100.00
62150;BME280;48134;53.586;10.610;2023-09-18T10:10:52;99802.59;;;20.30;100.00
62150;BME280;48134;53.586;10.610;2023-09-18T10:13:28;99794.25;;;20.26;100.00
62150;BME280;48134;53.586;10.610;2023-09-18T10:16:00;99789.97;;;20.29;100.00
62150;BME280;48134;53.586;10.610;2023-09-18T10:18:41;99800.28;;;20.32;100.00
62150;BME280;48134;53.586;10.610;2023-09-18T10:21:17;99785.09;;;20.45;100.00
62150;BME280;48134;53.586;10.610;2023-09-18T10:23:59;99784.47;;;20.55;100.00
62150;BME280;48134;53.586;10.610;2023-09-18T10:26:32;99788.41;;;20.54;100.00
62150;BME280;48134;53.586;10.610;2023-09-18T10:29:06;99788.47;;;20.58;100.00
62150;BME280;48134;53.586;10.610;2023-09-18T10:31:43;99793.31;;;20.65;100.00
62150;BME280;48134;53.586;10.610;2023-09-18T10:34:13;99797.41;;;20.71;100.00
62150;BME280;48134;53.586;10.610;2023-09-18T10:36:46;99788.16;;;20.63;100.00
62150;BME280;48134;53.586;10.610;2023-09-18T10:39:16;99785.28;;;20.56;100.00
62150;BME280;48134;53.586;10.610;2023-09-18T10:41:52;99783.69;;;20.55;100.00
62150;BME280;48134;53.586;10.610;2023-09-18T10:44:22;99782.75;;;20.47;100.00
62150;BME280;48134;53.586;10.610;2023-09-18T10:46:55;99796.28;;;20.52;100.00
62150;BME280;48134;53.586;10.610;2023-09-18T10:49:24;99796.03;;;20.61;100.00
62150;BME280;48134;53.586;10.610;2023-09-18T10:51:57;99792.50;;;20.64;100.00
62150;BME280;48134;53.586;10.610;2023-09-18T10:54:30;99784.91;;;20.58;100.00
62150;BME280;48134;53.586;10.610;2023-09-18T10:56:58;99790.94;;;20.63;100.00
62150;BME280;48134;53.586;10.610;2023-09-18T10:59:33;99798.56;;;20.70;100.00
62150;BME280;48134;53.586;10.610;2023-09-18T11:02:02;99804.22;;;20.77;100.00
62150;BME280;48134;53.586;10.610;2023-09-18T11:04:32;99803.78;;;20.75;100.00
62150;BME280;48134;53.586;10.610;2023-09-18T11:07:04;99791.34;;;20.88;100.00
62150;BME280;48134;53.586;10.610;2023-09-18T11:09:44;99793.16;;;21.04;100.00
62150;BME280;48134;53.586;10.610;2023-09-18T11:12:18;99783.41;;;21.14;100.00
62150;BME280;48134;53.586;10.610;2023-09-18T11:14:48;99792.25;;;21.23;100.00
62150;BME280;48134;53.586;10.610;2023-09-18T11:17:29;99805.38;;;21.30;100.00
62150;BME280;48134;53.586;10.610;2023-09-18T11:20:05;99799.50;;;21.35;100.00
62150;BME280;48134;53.586;10.610;2023-09-18T11:22:49;99794.69;;;21.28;100.00
62150;BME280;48134;53.586;10.610;2023-09-18T11:25:34;99792.34;;;21.30;100.00
62150;BME280;48134;53.586;10.610;2023-09-18T11:28:04;99804.06;;;21.20;100.00
62150;BME280;48134;53.586;10.610;2023-09-18T11:30:35;99802.88;;;21.21;100.00
62150;BME280;48134;53.586;10.610;2023-09-18T11:33:05;99796.09;;;21.15;100.00
62150;BME280;48134;53.586;10.610;2023-09-18T11:35:36;99800.81;;;21.14;100.00
62150;BME280;48134;53.586;10.610;2023-09-18T11:38:06;99806.00;;;21.16;100.00
62150;BME280;48134;53.586;10.610;2023-09-18T11:40:38;99801.50;;;21.34;100.00
62150;BME280;48134;53.586;10.610;2023-09-18T11:43:25;99799.56;;;21.38;100.00
62150;BME280;48134;53.586;10.610;2023-09-18T11:46:01;99790.50;;;21.41;100.00
62150;BME280;48134;53.586;10.610;2023-09-18T11:48:30;99794.03;;;21.38;100.00
62150;BME280;48134;53.586;10.610;2023-09-18T11:51:00;99793.88;;;21.28;100.00
62150;BME280;48134;53.586;10.610;2023-09-18T11:53:35;99801.63;;;21.15;100.00
62150;BME280;48134;53.586;10.610;2023-09-18T11:56:10;99815.47;;;21.18;100.00
62150;BME280;48134;53.586;10.610;2023-09-18T11:58:46;99815.25;;;21.31;100.00
62150;BME280;48134;53.586;10.610;2023-09-18T12:01:16;99805.81;;;21.62;100.00
62150;BME280;48134;53.586;10.610;2023-09-18T12:03:44;99802.34;;;21.69;100.00
62150;BME280;48134;53.586;10.610;2023-09-18T12:06:19;99798.13;;;21.79;100.00
62150;BME280;48134;53.586;10.610;2023-09-18T12:08:48;99796.50;;;21.78;100.00
62150;BME280;48134;53.586;10.610;2023-09-18T12:11:25;99807.84;;;21.65;100.00
62150;BME280;48134;53.586;10.610;2023-09-18T12:13:54;99813.25;;;21.54;100.00
62150;BME280;48134;53.586;10.610;2023-09-18T12:16:22;99811.19;;;21.51;100.00
62150;BME280;48134;53.586;10.610;2023-09-18T12:18:50;99828.16;;;21.46;100.00
62150;BME280;48134;53.586;10.610;2023-09-18T12:21:19;99828.94;;;21.47;100.00
62150;BME280;48134;53.586;10.610;2023-09-18T12:23:47;99819.47;;;21.48;100.00
62150;BME280;48134;53.586;10.610;2023-09-18T12:26:17;99817.00;;;21.69;100.00
62150;BME280;48134;53.586;10.610;2023-09-18T12:28:48;99808.41;;;21.78;100.00
62150;BME280;48134;53.586;10.610;2023-09-18T12:31:17;99808.47;;;21.85;100.00
62150;BME280;48134;53.586;10.610;2023-09-18T12:33:45;99798.69;;;21.95;100.00
62150;BME280;48134;53.586;10.610;2023-09-18T12:36:19;99787.66;;;21.99;100.00
62150;BME280;48134;53.586;10.610;2023-09-18T12:38:55;99785.19;;;21.90;100.00
62150;BME280;48134;53.586;10.610;2023-09-18T12:41:24;99780.06;;;21.92;100.00
62150;BME280;48134;53.586;10.610;2023-09-18T12:43:54;99770.53;;;21.89;100.00
62150;BME280;48134;53.586;10.610;2023-09-18T12:46:22;99770.59;;;21.93;100.00
62150;BME280;48134;53.586;10.610;2023-09-18T12:48:51;99780.84;;;21.92;100.00
62150;BME280;48134;53.586;10.610;2023-09-18T12:51:29;99777.63;;;21.87;100.00
62150;BME280;48134;53.586;10.610;2023-09-18T12:53:59;99773.38;;;21.93;100.00
62150;BME280;48134;53.586;10.610;2023-09-18T12:56:33;99763.84;;;21.94;100.00
62150;BME280;48134;53.586;10.610;2023-09-18T12:59:09;99781.63;;;21.89;100.00
62150;BME280;48134;53.586;10.610;2023-09-18T13:01:37;99788.91;;;22.05;100.00